createdAt,value
2022-07-30T00:00:32.787Z,17.90
2022-07-30T00:02:59.601Z,17.90
2022-07-30T00:05:26.503Z,17.80
2022-07-30T00:07:53.315Z,17.80
2022-07-30T00:10:20.203Z,17.80
2022-07-30T00:12:48.010Z,17.80
2022-07-30T00:15:14.996Z,17.80
2022-07-30T00:17:41.770Z,17.70
2022-07-30T00:20:13.700Z,17.70
2022-07-30T00:22:40.759Z,17.70
2022-07-30T00:25:07.872Z,17.70
2022-07-30T00:27:34.666Z,17.60
2022-07-30T00:30:03.714Z,17.60
2022-07-30T00:32:30.510Z,17.60
2022-07-30T00:34:57.353Z,17.60
2022-07-30T00:37:24.187Z,17.50
2022-07-30T00:39:50.954Z,17.50
2022-07-30T00:42:17.755Z,17.50
2022-07-30T00:44:44.527Z,17.40
2022-07-30T00:47:11.369Z,17.40
2022-07-30T00:49:42.580Z,17.40
2022-07-30T00:52:11.241Z,17.30
2022-07-30T00:57:25.214Z,17.30
2022-07-30T01:02:40.276Z,17.30
2022-07-30T01:07:54.436Z,17.30
2022-07-30T01:10:21.217Z,17.30
2022-07-30T01:12:48.195Z,17.30
2022-07-30T01:15:15.324Z,17.30
2022-07-30T01:17:42.502Z,17.30
2022-07-30T01:20:15.451Z,17.30
2022-07-30T01:23:00.440Z,17.30
2022-07-30T01:25:42.504Z,17.30
2022-07-30T01:28:12.461Z,17.30
2022-07-30T01:30:42.246Z,17.20
2022-07-30T01:33:15.459Z,17.20
2022-07-30T01:38:34.805Z,17.20
2022-07-30T01:43:51.364Z,17.20
2022-07-30T01:49:06.590Z,17.20
2022-07-30T01:51:37.412Z,17.20
2022-07-30T01:54:07.880Z,17.20
2022-07-30T01:56:37.177Z,17.10
2022-07-30T01:59:09.041Z,17.10
2022-07-30T02:01:36.000Z,17.10
2022-07-30T02:04:04.593Z,17.10
2022-07-30T02:07:00.273Z,17.10
2022-07-30T02:12:23.299Z,17.10
2022-07-30T02:14:54.956Z,17.00
2022-07-30T02:17:26.578Z,17.00
2022-07-30T02:19:59.604Z,17.00
2022-07-30T02:22:29.585Z,17.00
2022-07-30T02:24:57.960Z,17.00
2022-07-30T02:27:30.570Z,16.90
2022-07-30T02:30:00.420Z,16.90
2022-07-30T02:32:30.627Z,16.90
2022-07-30T02:37:53.382Z,16.90
2022-07-30T02:40:20.952Z,16.90
2022-07-30T02:42:51.361Z,16.80
2022-07-30T02:45:19.287Z,16.80
2022-07-30T02:50:40.504Z,16.70
2022-07-30T02:55:57.419Z,16.70
2022-07-30T02:58:25.731Z,16.70
2022-07-30T03:00:55.058Z,16.70
2022-07-30T03:03:22.292Z,16.70
2022-07-30T03:05:51.176Z,16.70
2022-07-30T03:08:19.306Z,16.70
2022-07-30T03:10:48.493Z,16.70
2022-07-30T03:16:07.296Z,16.60
2022-07-30T03:21:26.735Z,16.60
2022-07-30T03:23:56.812Z,16.60
2022-07-30T03:26:24.680Z,16.60
2022-07-30T03:28:52.091Z,16.60
2022-07-30T03:31:19.094Z,16.60
2022-07-30T03:33:47.365Z,16.60
2022-07-30T03:36:15.417Z,16.60
2022-07-30T03:41:31.239Z,16.70
2022-07-30T03:46:47.825Z,16.70
2022-07-30T03:52:02.168Z,16.70
2022-07-30T03:57:17.710Z,16.70
2022-07-30T04:02:42.095Z,16.80
2022-07-30T04:05:09.250Z,16.80
2022-07-30T04:07:36.031Z,16.80
2022-07-30T04:10:12.286Z,16.80
2022-07-30T04:12:39.070Z,16.90
2022-07-30T04:16:38.489Z,16.90
2022-07-30T04:18:01.319Z,16.90
2022-07-30T04:20:34.621Z,16.90
2022-07-30T04:25:50.522Z,16.90
2022-07-30T04:28:19.878Z,17.00
2022-07-30T04:30:46.877Z,17.00
2022-07-30T04:33:13.771Z,17.00
2022-07-30T04:35:51.347Z,17.00
2022-07-30T04:38:19.615Z,17.10
2022-07-30T04:40:46.771Z,17.10
2022-07-30T04:43:13.864Z,17.10
2022-07-30T04:45:41.097Z,17.10
2022-07-30T04:48:08.158Z,17.10
2022-07-30T04:50:38.461Z,17.20
2022-07-30T04:53:05.468Z,17.20
2022-07-30T04:55:33.965Z,17.20
2022-07-30T04:58:02.591Z,17.20
2022-07-30T05:00:32.569Z,17.30
2022-07-30T05:03:01.760Z,17.30
2022-07-30T05:08:15.925Z,17.40
2022-07-30T05:13:34.312Z,17.50
2022-07-30T05:18:48.432Z,17.60
2022-07-30T05:24:01.922Z,17.70
2022-07-30T05:26:28.750Z,17.80
2022-07-30T05:28:56.770Z,17.80
2022-07-30T05:31:24.608Z,17.90
2022-07-30T05:33:52.192Z,18.00
2022-07-30T05:36:20.570Z,18.10
2022-07-30T05:38:48.226Z,18.10
2022-07-30T05:41:31.709Z,18.20
2022-07-30T05:44:00.261Z,18.30
2022-07-30T05:46:27.225Z,18.40
2022-07-30T05:48:54.212Z,18.50
2022-07-30T05:51:21.055Z,18.60
2022-07-30T05:53:48.224Z,18.70
2022-07-30T05:56:15.139Z,18.70
2022-07-30T05:58:42.296Z,18.80
2022-07-30T06:01:09.326Z,19.00
2022-07-30T06:03:36.273Z,19.00
2022-07-30T06:06:04.351Z,19.20
2022-07-30T06:08:31.331Z,19.30
2022-07-30T06:10:58.147Z,19.30
2022-07-30T06:13:25.214Z,19.40
2022-07-30T06:15:52.092Z,19.50
2022-07-30T06:18:18.957Z,19.60
2022-07-30T06:20:46.505Z,19.60
2022-07-30T06:23:13.365Z,19.60
2022-07-30T06:28:37.587Z,19.50
2022-07-30T06:31:05.039Z,19.60
2022-07-30T06:33:31.889Z,19.80
2022-07-30T06:35:58.927Z,19.80
2022-07-30T06:41:12.496Z,19.90
2022-07-30T06:43:39.270Z,20.10
2022-07-30T06:46:06.112Z,20.20
2022-07-30T06:51:19.708Z,20.20
2022-07-30T06:56:33.275Z,20.30
2022-07-30T06:59:00.076Z,20.50
2022-07-30T07:01:26.939Z,20.60
2022-07-30T07:03:53.732Z,20.40
2022-07-30T07:06:20.561Z,20.40
2022-07-30T07:08:47.358Z,20.40
2022-07-30T07:14:04.497Z,20.50
2022-07-30T07:19:59.386Z,20.70
2022-07-30T07:22:05.274Z,20.80
2022-07-30T07:24:32.047Z,21.00
2022-07-30T07:26:59.156Z,21.00
2022-07-30T07:29:26.252Z,21.20
2022-07-30T07:32:05.642Z,21.40
2022-07-30T07:34:34.681Z,21.50
2022-07-30T07:37:01.755Z,21.70
2022-07-30T07:39:28.863Z,21.90
2022-07-30T07:44:42.637Z,22.20
2022-07-30T07:49:56.346Z,22.60
2022-07-30T07:52:23.167Z,22.80
2022-07-30T07:54:49.897Z,23.00
2022-07-30T07:57:17.164Z,22.80
2022-07-30T07:59:43.944Z,23.10
2022-07-30T08:04:57.374Z,23.40
2022-07-30T08:07:24.264Z,23.60
2022-07-30T08:12:37.802Z,23.60
2022-07-30T08:17:51.776Z,24.00
2022-07-30T08:23:05.687Z,24.10
2022-07-30T08:28:35.188Z,24.70
2022-07-30T08:31:03.590Z,25.00
2022-07-30T08:33:30.449Z,25.20
2022-07-30T08:35:59.061Z,25.40
2022-07-30T08:38:31.328Z,25.60
2022-07-30T08:40:58.871Z,25.70
2022-07-30T08:43:25.998Z,25.70
2022-07-30T08:45:53.733Z,25.90
2022-07-30T08:48:21.779Z,26.20
2022-07-30T08:50:50.232Z,26.30
2022-07-30T08:53:18.183Z,26.60
2022-07-30T08:55:45.299Z,26.80
2022-07-30T09:01:14.454Z,27.30
2022-07-30T09:06:28.429Z,28.00
2022-07-30T09:11:42.127Z,27.90
2022-07-30T09:14:13.447Z,28.50
2022-07-30T09:16:41.241Z,29.60
2022-07-30T09:19:19.526Z,31.00
2022-07-30T09:21:59.918Z,32.30
2022-07-30T09:24:27.910Z,33.40
2022-07-30T09:27:01.051Z,33.90
2022-07-30T09:29:30.229Z,34.70
2022-07-30T09:34:43.649Z,35.10
2022-07-30T09:37:10.362Z,35.70
2022-07-30T09:39:41.264Z,36.20
2022-07-30T09:42:26.524Z,36.40
2022-07-30T09:45:08.871Z,36.30
2022-07-30T09:47:44.012Z,36.20
2022-07-30T09:53:11.951Z,36.30
2022-07-30T09:55:41.205Z,36.70
2022-07-30T09:58:09.991Z,36.40
2022-07-30T10:00:42.365Z,36.40
2022-07-30T10:03:21.834Z,36.40
2022-07-30T10:08:50.417Z,36.70
2022-07-30T10:11:22.796Z,36.90
2022-07-30T10:16:41.641Z,36.50
2022-07-30T10:19:15.959Z,35.70
2022-07-30T10:21:46.262Z,35.90
2022-07-30T10:24:17.755Z,36.30
2022-07-30T10:26:55.713Z,35.90
2022-07-30T10:29:23.413Z,35.90
2022-07-30T10:32:02.060Z,36.40
2022-07-30T10:34:34.237Z,36.50
2022-07-30T10:37:06.878Z,37.00
2022-07-30T10:42:54.587Z,35.60
2022-07-30T10:45:50.144Z,35.90
2022-07-30T10:48:19.150Z,36.10
2022-07-30T10:50:56.261Z,34.60
2022-07-30T10:53:36.044Z,35.60
2022-07-30T10:56:25.701Z,34.90
2022-07-30T10:59:02.964Z,35.50
2022-07-30T11:01:51.763Z,34.90
2022-07-30T11:04:30.374Z,35.10
2022-07-30T11:07:23.514Z,35.30
2022-07-30T11:10:04.875Z,35.40
2022-07-30T11:12:44.738Z,35.00
2022-07-30T11:15:18.383Z,33.80
2022-07-30T11:18:03.246Z,33.00
2022-07-30T11:20:32.912Z,32.50
2022-07-30T11:23:18.785Z,32.90
2022-07-30T11:25:51.982Z,33.10
2022-07-30T11:28:39.037Z,33.60
2022-07-30T11:31:57.007Z,33.50
2022-07-30T11:34:25.723Z,32.70
2022-07-30T11:37:18.231Z,32.80
2022-07-30T11:42:44.399Z,31.70
2022-07-30T11:48:10.849Z,31.60
2022-07-30T11:50:38.397Z,31.20
2022-07-30T11:53:11.142Z,31.10
2022-07-30T11:55:41.095Z,30.80
2022-07-30T12:00:59.556Z,30.60
2022-07-30T12:06:15.137Z,30.20
2022-07-30T12:11:34.566Z,28.60
2022-07-30T12:16:53.659Z,28.50
2022-07-30T12:19:20.649Z,28.60
2022-07-30T12:21:52.528Z,28.20
2022-07-30T12:24:25.639Z,28.40
2022-07-30T12:26:52.593Z,28.40
2022-07-30T12:32:09.502Z,28.20
2022-07-30T12:34:36.340Z,28.20
2022-07-30T12:37:10.371Z,28.20
2022-07-30T12:39:37.397Z,28.20
2022-07-30T12:42:04.629Z,28.10
2022-07-30T12:44:42.866Z,28.20
2022-07-30T12:50:18.155Z,28.00
2022-07-30T12:52:50.003Z,28.00
2022-07-30T12:58:08.660Z,28.00
2022-07-30T13:00:46.216Z,28.00
2022-07-30T13:03:24.868Z,27.90
2022-07-30T13:05:55.247Z,27.70
2022-07-30T13:08:45.377Z,27.70
2022-07-30T13:11:12.211Z,27.80
2022-07-30T13:13:39.112Z,27.90
2022-07-30T13:16:06.966Z,28.10
2022-07-30T13:18:35.944Z,28.00
2022-07-30T13:21:04.265Z,27.90
2022-07-30T13:23:31.133Z,27.90
2022-07-30T13:25:58.379Z,28.00
2022-07-30T13:28:25.641Z,28.10
2022-07-30T13:30:52.830Z,28.30
2022-07-30T13:33:20.166Z,28.60
2022-07-30T13:35:48.144Z,29.00
2022-07-30T13:38:15.611Z,29.20
2022-07-30T13:40:43.333Z,29.30
2022-07-30T13:43:11.165Z,29.40
2022-07-30T13:45:38.051Z,29.30
2022-07-30T13:50:51.921Z,29.30
2022-07-30T13:56:05.533Z,29.40
2022-07-30T14:01:26.322Z,29.10
2022-07-30T14:03:53.134Z,29.10
2022-07-30T14:09:08.290Z,29.00
2022-07-30T14:14:23.906Z,28.60
2022-07-30T14:16:53.880Z,28.20
2022-07-30T14:19:23.582Z,28.30
2022-07-30T14:21:53.021Z,28.20
2022-07-30T14:24:21.875Z,28.10
2022-07-30T14:26:50.837Z,28.10
2022-07-30T14:29:21.390Z,28.00
2022-07-30T14:31:49.086Z,27.90
2022-07-30T14:34:16.175Z,27.80
2022-07-30T14:36:43.182Z,27.50
2022-07-30T14:39:09.953Z,27.20
2022-07-30T14:41:36.839Z,27.10
2022-07-30T14:44:03.888Z,27.00
2022-07-30T14:49:17.749Z,26.90
2022-07-30T14:51:44.700Z,26.60
2022-07-30T14:54:11.519Z,26.40
2022-07-30T14:56:38.881Z,25.90
2022-07-30T14:59:05.929Z,25.70
2022-07-30T15:01:32.818Z,25.80
2022-07-30T15:04:00.083Z,25.60
2022-07-30T15:06:27.125Z,25.70
2022-07-30T15:08:54.125Z,25.70
2022-07-30T15:11:22.021Z,25.20
2022-07-30T15:13:50.068Z,25.30
2022-07-30T15:16:18.693Z,25.40
2022-07-30T15:18:45.701Z,25.20
2022-07-30T15:21:12.622Z,25.10
2022-07-30T15:23:39.539Z,25.10
2022-07-30T15:26:06.624Z,25.10
2022-07-30T15:28:33.449Z,24.90
2022-07-30T15:31:00.323Z,24.90
2022-07-30T15:33:27.129Z,24.80
2022-07-30T15:35:53.891Z,24.40
2022-07-30T15:38:22.832Z,24.40
2022-07-30T15:40:49.690Z,24.30
2022-07-30T15:46:03.217Z,24.20
2022-07-30T15:51:16.727Z,24.20
2022-07-30T15:56:30.258Z,23.60
2022-07-30T15:58:57.062Z,23.60
2022-07-30T16:01:23.928Z,23.70
2022-07-30T16:03:50.733Z,23.50
2022-07-30T16:06:17.578Z,23.40
2022-07-30T16:08:44.351Z,23.50
2022-07-30T16:11:11.253Z,23.20
2022-07-30T16:13:38.092Z,23.10
2022-07-30T16:16:05.151Z,23.10
2022-07-30T16:21:18.692Z,22.90
2022-07-30T16:26:32.357Z,22.80
2022-07-30T16:28:59.131Z,22.80
2022-07-30T16:31:25.936Z,22.90
2022-07-30T16:33:52.703Z,22.70
2022-07-30T16:36:19.472Z,22.60
2022-07-30T16:38:46.395Z,22.50
2022-07-30T16:41:13.803Z,22.40
2022-07-30T16:46:27.911Z,22.40
2022-07-30T16:48:54.808Z,22.10
2022-07-30T16:51:21.631Z,22.20
2022-07-30T16:53:48.437Z,21.90
2022-07-30T16:56:16.193Z,21.90
2022-07-30T16:58:43.010Z,22.00
2022-07-30T17:01:09.903Z,22.20
2022-07-30T17:03:36.727Z,22.00
2022-07-30T17:06:03.662Z,22.00
2022-07-30T17:08:30.563Z,22.00
2022-07-30T17:10:57.359Z,22.00
2022-07-30T17:13:24.826Z,21.90
2022-07-30T17:15:51.634Z,21.70
2022-07-30T17:18:18.459Z,21.70
2022-07-30T17:20:45.372Z,21.60
2022-07-30T17:23:12.604Z,21.70
2022-07-30T17:28:27.063Z,21.60
2022-07-30T17:30:54.156Z,21.70
2022-07-30T17:33:20.944Z,21.60
2022-07-30T17:35:47.726Z,21.60
2022-07-30T17:38:14.539Z,21.70
2022-07-30T17:40:41.369Z,21.60
2022-07-30T17:43:08.457Z,21.50
2022-07-30T17:45:36.425Z,21.40
2022-07-30T17:48:04.965Z,21.50
2022-07-30T17:50:32.599Z,21.50
2022-07-30T17:53:00.136Z,21.50
2022-07-30T17:55:30.864Z,21.50
2022-07-30T17:57:57.787Z,21.50
2022-07-30T18:03:11.293Z,21.30
2022-07-30T18:05:38.101Z,21.40
2022-07-30T18:08:05.219Z,21.30
2022-07-30T18:10:31.994Z,21.20
2022-07-30T18:15:45.487Z,21.30
2022-07-30T18:18:12.284Z,21.20
2022-07-30T18:20:48.147Z,21.20
2022-07-30T18:23:15.622Z,21.30
2022-07-30T18:25:51.514Z,21.20
2022-07-30T18:28:18.834Z,21.20
2022-07-30T18:30:45.606Z,21.20
2022-07-30T18:33:12.376Z,21.20
2022-07-30T18:35:39.230Z,21.20
2022-07-30T18:38:06.044Z,21.10
2022-07-30T18:40:32.933Z,21.10
2022-07-30T18:45:46.495Z,21.10
2022-07-30T18:48:13.277Z,21.10
2022-07-30T18:50:40.230Z,21.00
2022-07-30T18:53:15.199Z,21.00
2022-07-30T18:55:43.700Z,20.90
2022-07-30T18:58:11.025Z,20.90
2022-07-30T19:00:38.072Z,20.90
2022-07-30T19:03:04.961Z,20.90
2022-07-30T19:08:18.782Z,20.80
2022-07-30T19:10:45.557Z,20.70
2022-07-30T19:13:12.353Z,20.60
2022-07-30T19:15:39.425Z,20.60
2022-07-30T19:18:06.231Z,20.60
2022-07-30T19:20:33.049Z,20.50
2022-07-30T19:23:01.624Z,20.40
2022-07-30T19:25:30.076Z,20.40
2022-07-30T19:27:56.875Z,20.40
2022-07-30T19:30:23.692Z,20.30
2022-07-30T19:32:50.466Z,20.30
2022-07-30T19:35:17.331Z,20.20
2022-07-30T19:37:44.143Z,20.20
2022-07-30T19:43:02.167Z,20.10
2022-07-30T19:45:47.454Z,20.10
2022-07-30T19:48:15.675Z,20.10
2022-07-30T19:50:57.086Z,20.10
2022-07-30T19:53:24.265Z,20.00
2022-07-30T19:55:51.287Z,19.80
2022-07-30T19:58:19.219Z,19.80
2022-07-30T20:00:49.434Z,19.80
2022-07-30T20:03:25.802Z,19.80
2022-07-30T20:05:58.581Z,19.70
2022-07-30T20:08:29.633Z,19.70
2022-07-30T20:10:57.659Z,19.70
2022-07-30T20:13:44.147Z,19.60
2022-07-30T20:16:12.777Z,19.60
2022-07-30T20:18:40.480Z,19.60
2022-07-30T20:21:13.993Z,19.60
2022-07-30T20:23:41.860Z,19.50
2022-07-30T20:26:12.410Z,19.50
2022-07-30T20:28:41.195Z,19.40
2022-07-30T20:31:08.879Z,19.40
2022-07-30T20:33:39.121Z,19.40
2022-07-30T20:36:09.850Z,19.30
2022-07-30T20:38:37.557Z,19.20
2022-07-30T20:41:10.115Z,19.20
2022-07-30T20:43:51.560Z,19.20
2022-07-30T20:49:56.807Z,19.00
2022-07-30T20:52:23.603Z,18.90
2022-07-30T20:54:50.397Z,18.90
2022-07-30T20:57:20.263Z,18.80
2022-07-30T21:00:06.049Z,18.70
2022-07-30T21:02:35.499Z,18.60
2022-07-30T21:05:05.339Z,18.60
2022-07-30T21:07:36.365Z,18.50
2022-07-30T21:10:04.542Z,18.40
2022-07-30T21:12:34.172Z,18.40
2022-07-30T21:15:00.973Z,18.30
2022-07-30T21:17:28.229Z,18.20
2022-07-30T21:19:55.207Z,18.20
2022-07-30T21:22:22.423Z,18.10
2022-07-30T21:24:50.873Z,18.10
2022-07-30T21:27:17.977Z,18.00
2022-07-30T21:29:45.926Z,17.90
2022-07-30T21:32:13.238Z,17.80
2022-07-30T21:34:42.275Z,17.80
2022-07-30T21:37:09.782Z,17.70
2022-07-30T21:39:39.787Z,17.70
2022-07-30T21:42:10.373Z,17.60
2022-07-30T21:44:38.307Z,17.60
2022-07-30T21:47:10.269Z,17.50
2022-07-30T21:49:40.257Z,17.40
2022-07-30T21:52:10.537Z,17.40
2022-07-30T21:54:48.406Z,17.30
2022-07-30T21:57:23.114Z,17.20
2022-07-30T21:59:55.258Z,17.20
2022-07-30T22:02:23.223Z,17.10
2022-07-30T22:04:51.388Z,17.10
2022-07-30T22:07:19.293Z,17.00
2022-07-30T22:09:49.179Z,16.90
2022-07-30T22:12:17.996Z,16.90
2022-07-30T22:14:49.392Z,16.90
2022-07-30T22:17:23.670Z,16.80
2022-07-30T22:20:08.454Z,16.80
2022-07-30T22:22:36.477Z,16.70
2022-07-30T22:25:09.477Z,16.70
2022-07-30T22:27:40.173Z,16.70
2022-07-30T22:30:26.416Z,16.60
2022-07-30T22:32:53.967Z,16.60
2022-07-30T22:38:08.117Z,16.50
2022-07-30T22:40:35.670Z,16.50
2022-07-30T22:43:12.670Z,16.50
2022-07-30T22:45:48.177Z,16.50
2022-07-30T22:48:16.398Z,16.50
2022-07-30T22:50:43.545Z,16.50
2022-07-30T22:53:23.578Z,16.40
2022-07-30T22:55:57.321Z,16.30
2022-07-30T22:58:26.706Z,16.30
2022-07-30T23:00:54.020Z,16.30
2022-07-30T23:03:20.945Z,16.30
2022-07-30T23:05:56.668Z,16.40
2022-07-30T23:08:29.659Z,16.30
2022-07-30T23:10:58.190Z,16.30
2022-07-30T23:12:31.871Z,16.50
2022-07-30T23:13:24.993Z,16.20
2022-07-30T23:18:38.493Z,16.10
2022-07-30T23:23:51.993Z,16.00
2022-07-30T23:26:18.934Z,15.90
2022-07-30T23:28:45.811Z,15.90
2022-07-30T23:31:12.877Z,15.90
2022-07-30T23:33:39.998Z,15.80
2022-07-30T23:36:08.269Z,15.70
2022-07-30T23:38:35.897Z,15.70
2022-07-30T23:41:03.860Z,15.70
2022-07-30T23:43:31.510Z,15.60
2022-07-30T23:45:58.310Z,15.70
2022-07-30T23:48:25.191Z,15.70
2022-07-30T23:50:51.998Z,15.60
2022-07-30T23:53:18.920Z,15.70
2022-07-30T23:55:47.643Z,15.60
2022-07-30T23:58:14.445Z,15.60
